Time;durP1;ratioP1;P1;durP2;ratioP2;P2;SDS_P1;SDS_P2;PMS_P1;PMS_P2;Temp;Humidity;BMP_temperature;BMP_pressure;BME280_temperature;BME280_humidity;BME280_pressure;Samples;Min_cycle;Max_cycle;Signal;HPM_P1;HPM_P2
2022/01/05 00:02:10;;;;;;;;;;;1.50;99.90;;;;;;5054173;28;19927;-60
2022/01/05 00:04:38;;;;;;;;;;;1.60;99.90;;;;;;5041080;28;19924;-63
2022/01/05 00:07:15;;;;;;;;;;;1.60;99.90;;;;;;5063113;28;19924;-62
2022/01/05 00:09:46;;;;;;;;;;;1.60;99.90;;;;;;5068645;28;19935;-61
2022/01/05 00:12:16;;;;;;;;;;;1.70;99.90;;;;;;5065128;28;19929;-60
2022/01/05 00:14:44;;;;;;;;;;;1.70;99.90;;;;;;5055657;28;19920;-61
2022/01/05 00:17:21;;;;;;;;;;;1.70;99.90;;;;;;5064479;28;20303;-60
2022/01/05 00:19:48;;;;;;;;;;;1.70;99.90;;;;;;5048598;28;19921;-61
2022/01/05 00:22:16;;;;;;;;;;;1.70;99.90;;;;;;5061538;28;19924;-60
2022/01/05 00:24:44;;;;;;;;;;;1.70;99.90;;;;;;5055243;28;20395;-61
2022/01/05 00:27:12;;;;;;;;;;;1.80;99.90;;;;;;5048377;28;19920;-60
2022/01/05 00:29:40;;;;;;;;;;;1.90;99.90;;;;;;5050150;28;19929;-61
2022/01/05 00:32:10;;;;;;;;;;;1.90;99.90;;;;;;5030581;28;19928;-60
2022/01/05 00:34:38;;;;;;;;;;;1.90;99.90;;;;;;5039962;28;19920;-60
2022/01/05 00:37:06;;;;;;;;;;;1.90;99.90;;;;;;5066533;28;19921;-61
2022/01/05 00:39:34;;;;;;;;;;;1.90;99.90;;;;;;5050393;28;19924;-61
2022/01/05 00:42:03;;;;;;;;;;;1.90;99.90;;;;;;5067874;28;19921;-62
2022/01/05 00:44:30;;;;;;;;;;;1.90;99.90;;;;;;5060440;28;19947;-61
2022/01/05 00:46:58;;;;;;;;;;;1.90;99.90;;;;;;5048143;28;19921;-60
2022/01/05 00:49:35;;;;;;;;;;;1.90;99.90;;;;;;5064373;28;19931;-61
2022/01/05 00:52:07;;;;;;;;;;;1.90;99.90;;;;;;5068640;28;19927;-62
2022/01/05 00:54:35;;;;;;;;;;;1.90;99.90;;;;;;5040191;28;19920;-61
2022/01/05 00:57:03;;;;;;;;;;;1.90;99.90;;;;;;5067319;28;19978;-61
2022/01/05 00:59:34;;;;;;;;;;;2.00;99.90;;;;;;5041518;28;19927;-64
2022/01/05 01:02:05;;;;;;;;;;;2.00;99.90;;;;;;5046685;28;19920;-64
2022/01/05 01:04:37;;;;;;;;;;;2.00;99.90;;;;;;5052420;28;19928;-63
2022/01/05 01:07:05;;;;;;;;;;;2.10;99.90;;;;;;5066460;28;20206;-63
2022/01/05 01:09:41;;;;;;;;;;;2.10;99.90;;;;;;5066062;28;19921;-64
2022/01/05 01:12:15;;;;;;;;;;;2.00;99.90;;;;;;5017817;28;20300;-63
2022/01/05 01:14:42;;;;;;;;;;;2.00;99.90;;;;;;5057745;28;19928;-62
2022/01/05 01:17:13;;;;;;;;;;;2.00;99.90;;;;;;5071980;28;19920;-62
2022/01/05 01:19:41;;;;;;;;;;;2.10;99.90;;;;;;5071637;28;19974;-64
2022/01/05 01:22:08;;;;;;;;;;;2.00;99.90;;;;;;5032263;28;19951;-64
2022/01/05 01:24:36;;;;;;;;;;;2.00;99.90;;;;;;5042740;28;19920;-61
2022/01/05 01:27:04;;;;;;;;;;;2.10;99.90;;;;;;5053789;28;19921;-63
2022/01/05 01:29:32;;;;;;;;;;;2.20;99.90;;;;;;5066367;28;19920;-63
2022/01/05 01:32:09;;;;;;;;;;;2.10;99.90;;;;;;5018662;28;20407;-64
2022/01/05 01:34:37;;;;;;;;;;;2.20;99.90;;;;;;5041048;28;19928;-65
2022/01/05 01:37:04;;;;;;;;;;;2.30;99.90;;;;;;5071363;28;19939;-64
2022/01/05 01:39:35;;;;;;;;;;;2.40;99.90;;;;;;5053247;28;19920;-63
2022/01/05 01:42:04;;;;;;;;;;;2.40;99.90;;;;;;5053838;28;19921;-65
2022/01/05 01:44:32;;;;;;;;;;;2.40;99.90;;;;;;5063192;28;19927;-64
2022/01/05 01:47:00;;;;;;;;;;;2.50;99.90;;;;;;5061201;28;19949;-64
2022/01/05 01:49:30;;;;;;;;;;;2.60;99.90;;;;;;5071019;28;20324;-65
2022/01/05 01:51:59;;;;;;;;;;;2.60;99.90;;;;;;5053423;28;20171;-65
2022/01/05 01:54:28;;;;;;;;;;;2.60;99.90;;;;;;5052489;28;19924;-65
2022/01/05 01:56:56;;;;;;;;;;;2.70;99.90;;;;;;5066508;28;19927;-63
2022/01/05 01:59:25;;;;;;;;;;;2.70;99.90;;;;;;5068964;28;19931;-65
2022/01/05 02:01:54;;;;;;;;;;;2.70;99.90;;;;;;5069454;28;20283;-64
2022/01/05 02:04:21;;;;;;;;;;;2.80;99.90;;;;;;5053263;28;19936;-62
2022/01/05 02:06:51;;;;;;;;;;;2.80;99.90;;;;;;5071167;28;19920;-63
2022/01/05 02:09:19;;;;;;;;;;;2.80;99.90;;;;;;5070968;28;19927;-61
2022/01/05 02:11:47;;;;;;;;;;;2.80;99.90;;;;;;5070375;28;20320;-62
2022/01/05 02:14:15;;;;;;;;;;;2.80;99.90;;;;;;5064621;28;20415;-61
2022/01/05 02:16:45;;;;;;;;;;;2.80;99.90;;;;;;5063970;28;20288;-62
2022/01/05 02:19:13;;;;;;;;;;;2.90;99.90;;;;;;5051403;28;20408;-61
2022/01/05 02:21:42;;;;;;;;;;;2.90;99.90;;;;;;5054128;28;20187;-64
2022/01/05 02:24:10;;;;;;;;;;;2.80;99.90;;;;;;5055032;28;19924;-64
2022/01/05 02:26:39;;;;;;;;;;;2.90;99.90;;;;;;5070666;28;19927;-61
2022/01/05 02:29:07;;;;;;;;;;;2.80;99.90;;;;;;5069979;28;20279;-61
2022/01/05 02:31:43;;;;;;;;;;;2.80;99.90;;;;;;5054424;28;20364;-61
2022/01/05 02:34:17;;;;;;;;;;;2.80;99.90;;;;;;5055128;28;19992;-61
2022/01/05 02:36:50;;;;;;;;;;;2.70;99.90;;;;;;5053687;28;20284;-61
2022/01/05 02:39:18;;;;;;;;;;;2.70;99.90;;;;;;5068531;28;20298;-60
2022/01/05 02:41:46;;;;;;;;;;;2.60;99.90;;;;;;5073607;28;19924;-61
2022/01/05 02:44:13;;;;;;;;;;;2.50;99.90;;;;;;5072670;28;19921;-61
2022/01/05 02:46:45;;;;;;;;;;;2.50;99.90;;;;;;5036897;28;19921;-61
2022/01/05 02:49:13;;;;;;;;;;;2.50;99.90;;;;;;5066934;28;19920;-61
2022/01/05 02:51:41;;;;;;;;;;;2.40;99.90;;;;;;5073615;28;20278;-61
2022/01/05 02:54:08;;;;;;;;;;;2.50;99.90;;;;;;5071403;28;19920;-61
2022/01/05 02:56:36;;;;;;;;;;;2.50;99.90;;;;;;5039138;28;20398;-60
2022/01/05 02:59:04;;;;;;;;;;;2.60;99.90;;;;;;5072761;28;19921;-61
2022/01/05 03:01:33;;;;;;;;;;;2.60;99.90;;;;;;5073581;28;19920;-60
2022/01/05 03:04:02;;;;;;;;;;;2.50;99.90;;;;;;5045693;28;19921;-60
2022/01/05 03:06:30;;;;;;;;;;;2.50;99.90;;;;;;5053103;28;19937;-60
2022/01/05 03:08:59;;;;;;;;;;;2.40;99.90;;;;;;5054659;28;19928;-61
2022/01/05 03:11:34;;;;;;;;;;;2.40;99.90;;;;;;5053365;28;19925;-61
2022/01/05 03:14:02;;;;;;;;;;;2.30;99.90;;;;;;5035138;28;19928;-61
2022/01/05 03:16:29;;;;;;;;;;;2.30;99.90;;;;;;5054881;28;19920;-60
2022/01/05 03:18:57;;;;;;;;;;;2.30;99.90;;;;;;5057307;28;19924;-61
2022/01/05 03:21:25;;;;;;;;;;;2.20;99.90;;;;;;5062111;28;19924;-61
2022/01/05 03:23:53;;;;;;;;;;;2.20;99.90;;;;;;5055480;28;20291;-61
2022/01/05 03:26:20;;;;;;;;;;;2.20;99.90;;;;;;5072919;28;20287;-61
2022/01/05 03:28:48;;;;;;;;;;;2.20;99.90;;;;;;5087872;28;19924;-61
2022/01/05 03:31:25;;;;;;;;;;;2.20;99.90;;;;;;5072000;28;19921;-60
2022/01/05 03:33:55;;;;;;;;;;;2.20;99.90;;;;;;5072894;28;20335;-60
2022/01/05 03:36:23;;;;;;;;;;;2.20;99.90;;;;;;5072686;28;19928;-60
2022/01/05 03:38:51;;;;;;;;;;;2.20;99.90;;;;;;5053182;28;19943;-62
2022/01/05 03:41:19;;;;;;;;;;;2.20;99.90;;;;;;5063477;28;19924;-61
2022/01/05 03:43:48;;;;;;;;;;;2.20;99.90;;;;;;5062192;28;20287;-60
2022/01/05 03:46:19;;;;;;;;;;;2.30;99.90;;;;;;5054967;28;19920;-61
2022/01/05 03:48:46;;;;;;;;;;;2.20;99.90;;;;;;5072589;28;19920;-60
2022/01/05 03:51:14;;;;;;;;;;;2.30;99.90;;;;;;5072597;28;19927;-60
2022/01/05 03:53:42;;;;;;;;;;;2.30;99.90;;;;;;5054390;28;20308;-61
2022/01/05 03:56:10;;;;;;;;;;;2.30;99.90;;;;;;5072364;28;19920;-61
2022/01/05 03:58:38;;;;;;;;;;;2.40;99.90;;;;;;5054670;28;20299;-60
2022/01/05 04:01:06;;;;;;;;;;;2.40;99.90;;;;;;5071491;28;19921;-60
2022/01/05 04:03:39;;;;;;;;;;;2.50;99.90;;;;;;5072255;28;19927;-60
2022/01/05 04:06:07;;;;;;;;;;;2.60;99.90;;;;;;5072294;28;19927;-62
2022/01/05 04:08:35;;;;;;;;;;;2.60;99.90;;;;;;5053893;28;19920;-61
2022/01/05 04:11:02;;;;;;;;;;;2.80;99.90;;;;;;5054039;28;19928;-63
2022/01/05 04:13:30;;;;;;;;;;;2.80;99.90;;;;;;5071934;28;19947;-62
2022/01/05 04:16:00;;;;;;;;;;;2.80;99.90;;;;;;5072119;28;19927;-63
2022/01/05 04:18:28;;;;;;;;;;;2.80;99.90;;;;;;5072164;28;19928;-60
2022/01/05 04:20:55;;;;;;;;;;;2.80;99.90;;;;;;5071848;28;19927;-61
2022/01/05 04:23:23;;;;;;;;;;;2.70;99.90;;;;;;5071688;28;19927;-60
2022/01/05 04:25:52;;;;;;;;;;;2.70;99.90;;;;;;5052157;28;20376;-61
2022/01/05 04:28:20;;;;;;;;;;;2.70;99.90;;;;;;5059230;28;19928;-61
2022/01/05 04:30:50;;;;;;;;;;;2.70;99.90;;;;;;5071915;28;19934;-61
2022/01/05 04:33:18;;;;;;;;;;;2.70;99.90;;;;;;5071950;28;19920;-60
2022/01/05 04:36:05;;;;;;;;;;;2.70;99.90;;;;;;5072216;28;20292;-64
2022/01/05 04:38:33;;;;;;;;;;;2.70;99.90;;;;;;5030936;28;19940;-65
2022/01/05 04:41:04;;;;;;;;;;;2.70;99.90;;;;;;5032323;28;19921;-64
2022/01/05 04:43:43;;;;;;;;;;;2.80;99.90;;;;;;5038239;28;19921;-64
2022/01/05 04:46:11;;;;;;;;;;;2.80;99.90;;;;;;5038544;28;19921;-65
2022/01/05 04:48:41;;;;;;;;;;;2.80;99.90;;;;;;5038446;28;20265;-64
2022/01/05 04:51:09;;;;;;;;;;;2.80;99.90;;;;;;5038608;28;19925;-66
2022/01/05 04:53:41;;;;;;;;;;;2.80;99.90;;;;;;5038394;28;19921;-65
2022/01/05 04:56:09;;;;;;;;;;;2.70;99.90;;;;;;5037564;28;19931;-64
2022/01/05 04:58:37;;;;;;;;;;;2.70;99.90;;;;;;5038125;28;20301;-61
2022/01/05 05:01:07;;;;;;;;;;;2.60;99.90;;;;;;5038284;28;19932;-61
2022/01/05 05:03:35;;;;;;;;;;;2.60;99.90;;;;;;5038423;28;19921;-61
2022/01/05 05:06:03;;;;;;;;;;;2.50;99.90;;;;;;5037079;28;19921;-61
2022/01/05 05:08:32;;;;;;;;;;;2.50;99.90;;;;;;5037714;28;19928;-62
2022/01/05 05:11:00;;;;;;;;;;;2.50;99.90;;;;;;5037769;28;19925;-61
2022/01/05 05:13:28;;;;;;;;;;;2.50;99.90;;;;;;5038428;28;20292;-60
2022/01/05 05:15:55;;;;;;;;;;;2.40;99.90;;;;;;5038337;28;19928;-62
2022/01/05 05:18:30;;;;;;;;;;;2.40;99.90;;;;;;5038284;28;19925;-61
2022/01/05 05:21:01;;;;;;;;;;;2.40;99.90;;;;;;5038169;28;19948;-61
2022/01/05 05:23:28;;;;;;;;;;;2.30;99.90;;;;;;5038079;28;19921;-61
2022/01/05 05:25:59;;;;;;;;;;;2.30;99.90;;;;;;5037159;28;19928;-61
2022/01/05 05:28:27;;;;;;;;;;;2.30;99.90;;;;;;5038125;28;19921;-60
2022/01/05 05:30:55;;;;;;;;;;;2.20;99.90;;;;;;5038638;28;19944;-61
2022/01/05 05:33:22;;;;;;;;;;;2.20;99.90;;;;;;5038498;28;19928;-62
2022/01/05 05:35:50;;;;;;;;;;;2.10;99.90;;;;;;5037195;28;19925;-62
2022/01/05 05:38:21;;;;;;;;;;;2.20;99.90;;;;;;5073105;28;19920;-60
2022/01/05 05:40:49;;;;;;;;;;;2.10;99.90;;;;;;5078194;28;19927;-61
2022/01/05 05:43:17;;;;;;;;;;;2.10;99.90;;;;;;5078239;28;19927;-61
2022/01/05 05:45:55;;;;;;;;;;;2.00;99.90;;;;;;5078051;28;19920;-62
2022/01/05 05:48:23;;;;;;;;;;;2.00;99.90;;;;;;5042663;28;19921;-60
2022/01/05 05:50:51;;;;;;;;;;;1.90;99.90;;;;;;5036822;28;19928;-62
2022/01/05 05:53:18;;;;;;;;;;;1.90;99.90;;;;;;5051910;28;19932;-61
2022/01/05 05:55:46;;;;;;;;;;;1.90;99.90;;;;;;5051367;28;19921;-61
2022/01/05 05:58:14;;;;;;;;;;;1.90;99.90;;;;;;5060573;28;19921;-62
2022/01/05 06:00:41;;;;;;;;;;;2.00;99.90;;;;;;5071339;28;20398;-61
2022/01/05 06:03:09;;;;;;;;;;;2.00;99.90;;;;;;5054044;28;19932;-64
2022/01/05 06:05:37;;;;;;;;;;;2.10;99.90;;;;;;5047689;28;19921;-60
2022/01/05 06:08:04;;;;;;;;;;;2.10;99.90;;;;;;5056002;28;19924;-61
2022/01/05 06:10:32;;;;;;;;;;;2.10;99.90;;;;;;5070635;28;19924;-65
2022/01/05 06:13:01;;;;;;;;;;;2.10;99.90;;;;;;5066851;28;19931;-64
2022/01/05 06:15:34;;;;;;;;;;;2.10;99.90;;;;;;5047550;28;19928;-62
2022/01/05 06:18:02;;;;;;;;;;;2.20;99.90;;;;;;5050607;28;20304;-63
2022/01/05 06:20:32;;;;;;;;;;;2.20;99.90;;;;;;5047601;28;19928;-62
2022/01/05 06:23:01;;;;;;;;;;;2.30;99.90;;;;;;5059744;28;19929;-63
2022/01/05 06:25:32;;;;;;;;;;;2.40;99.90;;;;;;5053368;28;19920;-62
2022/01/05 06:28:00;;;;;;;;;;;2.40;99.90;;;;;;5036118;28;20223;-63
2022/01/05 06:30:28;;;;;;;;;;;2.50;99.90;;;;;;5070842;28;19924;-61
2022/01/05 06:33:00;;;;;;;;;;;2.50;99.90;;;;;;5049250;28;19931;-63
2022/01/05 06:35:30;;;;;;;;;;;2.60;99.90;;;;;;5050505;28;20851;-64
2022/01/05 06:38:10;;;;;;;;;;;2.70;99.90;;;;;;5020428;28;19936;-65
2022/01/05 06:40:55;;;;;;;;;;;2.70;99.90;;;;;;5027558;28;19927;-61
2022/01/05 06:43:24;;;;;;;;;;;2.70;99.90;;;;;;5027135;28;19928;-61
2022/01/05 06:45:57;;;;;;;;;;;2.70;99.90;;;;;;5027685;28;20369;-62
2022/01/05 06:48:29;;;;;;;;;;;2.70;99.90;;;;;;5021667;28;20297;-62
2022/01/05 06:50:57;;;;;;;;;;;2.60;99.90;;;;;;5010304;28;19928;-63
2022/01/05 06:53:40;;;;;;;;;;;2.60;99.90;;;;;;5025173;28;19931;-63
2022/01/05 06:56:15;;;;;;;;;;;2.60;99.90;;;;;;5030430;28;19921;-61
2022/01/05 06:58:45;;;;;;;;;;;2.60;99.90;;;;;;5030316;28;20373;-62
2022/01/05 07:01:18;;;;;;;;;;;2.60;99.90;;;;;;5030098;28;20383;-62
2022/01/05 07:04:06;;;;;;;;;;;2.60;99.90;;;;;;5016563;28;19932;-64
2022/01/05 07:06:34;;;;;;;;;;;2.60;99.90;;;;;;5005473;28;19921;-65
2022/01/05 07:09:02;;;;;;;;;;;2.60;99.90;;;;;;5022390;28;19925;-62
2022/01/05 07:11:31;;;;;;;;;;;2.60;99.90;;;;;;5027435;28;19921;-62
2022/01/05 07:13:59;;;;;;;;;;;2.60;99.90;;;;;;5028339;28;19920;-65
2022/01/05 07:16:27;;;;;;;;;;;2.60;99.90;;;;;;5029858;28;19921;-67
2022/01/05 07:18:54;;;;;;;;;;;2.60;99.90;;;;;;5021757;28;19940;-62
2022/01/05 07:21:23;;;;;;;;;;;2.70;99.90;;;;;;5009827;28;19944;-61
2022/01/05 07:23:54;;;;;;;;;;;2.70;99.90;;;;;;5026369;28;19921;-60
2022/01/05 07:26:22;;;;;;;;;;;2.70;99.90;;;;;;5030002;28;19925;-61
2022/01/05 07:28:52;;;;;;;;;;;2.70;99.90;;;;;;5029691;28;19936;-61
2022/01/05 07:31:20;;;;;;;;;;;2.80;99.90;;;;;;5027978;28;19943;-62
2022/01/05 07:33:48;;;;;;;;;;;2.80;99.90;;;;;;5019988;28;19921;-68
2022/01/05 07:36:16;;;;;;;;;;;2.80;99.90;;;;;;5007441;28;19941;-65
2022/01/05 07:38:47;;;;;;;;;;;2.80;99.90;;;;;;5062199;28;19928;-65
2022/01/05 07:41:17;;;;;;;;;;;2.80;99.90;;;;;;5051692;28;20287;-64
2022/01/05 07:43:48;;;;;;;;;;;2.80;99.90;;;;;;5069165;28;19920;-66
2022/01/05 07:46:16;;;;;;;;;;;2.80;99.90;;;;;;5069042;28;19925;-66
2022/01/05 07:48:43;;;;;;;;;;;2.80;99.90;;;;;;5064344;28;19924;-61
2022/01/05 07:51:37;;;;;;;;;;;2.90;99.90;;;;;;5048909;28;20292;-62
2022/01/05 07:54:04;;;;;;;;;;;2.90;99.90;;;;;;5066962;28;19921;-61
2022/01/05 07:56:32;;;;;;;;;;;2.90;99.90;;;;;;5069170;28;20041;-63
2022/01/05 07:59:07;;;;;;;;;;;2.90;99.90;;;;;;5068839;28;20525;-62
2022/01/05 08:01:35;;;;;;;;;;;2.90;99.90;;;;;;5068040;28;19931;-65
2022/01/05 08:04:05;;;;;;;;;;;2.90;99.90;;;;;;5058334;28;19932;-62
2022/01/05 08:06:32;;;;;;;;;;;2.90;99.90;;;;;;5045259;28;19928;-65
2022/01/05 08:09:00;;;;;;;;;;;3.00;99.90;;;;;;5060924;28;19924;-61
2022/01/05 08:11:34;;;;;;;;;;;3.00;99.90;;;;;;5065483;28;19939;-61
2022/01/05 08:14:05;;;;;;;;;;;3.00;99.90;;;;;;5065167;28;19931;-63
2022/01/05 08:16:33;;;;;;;;;;;3.00;99.90;;;;;;5064965;28;20399;-60
2022/01/05 08:19:10;;;;;;;;;;;2.90;99.90;;;;;;5059720;28;19928;-62
2022/01/05 08:21:37;;;;;;;;;;;3.00;99.90;;;;;;5027493;28;19920;-60
2022/01/05 08:24:05;;;;;;;;;;;3.00;99.90;;;;;;5063432;28;19947;-61
2022/01/05 08:26:33;;;;;;;;;;;3.00;99.90;;;;;;5065259;28;20288;-60
2022/01/05 08:29:00;;;;;;;;;;;3.10;99.90;;;;;;5047056;28;19920;-60
2022/01/05 08:31:28;;;;;;;;;;;3.10;99.90;;;;;;5047380;28;19924;-61
2022/01/05 08:34:00;;;;;;;;;;;3.00;99.90;;;;;;5061526;28;19924;-63
2022/01/05 08:36:28;;;;;;;;;;;2.90;99.90;;;;;;5044967;28;19924;-65
2022/01/05 08:38:58;;;;;;;;;;;2.90;99.90;;;;;;5062126;28;19922;-63
2022/01/05 08:41:26;;;;;;;;;;;2.80;99.90;;;;;;5068491;28;19924;-65
2022/01/05 08:43:55;;;;;;;;;;;2.80;99.90;;;;;;5067985;28;19927;-64
2022/01/05 08:46:26;;;;;;;;;;;2.80;99.90;;;;;;5068287;28;19921;-61
2022/01/05 08:48:58;;;;;;;;;;;2.80;99.90;;;;;;5066483;28;19927;-62
2022/01/05 08:51:26;;;;;;;;;;;2.80;99.90;;;;;;5048591;28;20399;-61
2022/01/05 08:53:54;;;;;;;;;;;2.80;99.90;;;;;;5064421;28;19920;-62
2022/01/05 08:56:25;;;;;;;;;;;2.80;99.90;;;;;;5050587;28;19951;-62
2022/01/05 08:58:55;;;;;;;;;;;2.80;99.90;;;;;;5068149;28;20102;-61
2022/01/05 09:01:24;;;;;;;;;;;2.80;99.90;;;;;;5068402;28;20371;-62
2022/01/05 09:03:52;;;;;;;;;;;2.80;99.90;;;;;;5067015;28;19924;-63
2022/01/05 09:06:20;;;;;;;;;;;2.80;99.90;;;;;;5030323;28;19921;-62
2022/01/05 09:08:48;;;;;;;;;;;2.70;99.90;;;;;;5061812;28;19928;-66
2022/01/05 10:01:58;;;;;;;16.38;2.55;;;2.50;99.90;;;;;;5085411;27;20382;-66
2022/01/05 10:04:27;;;;;;;13.57;2.60;;;3.00;99.90;;;;;;5065327;28;20044;-67
2022/01/05 10:06:55;;;;;;;9.90;1.52;;;3.10;99.90;;;;;;5062315;28;20051;-68
2022/01/05 10:09:23;;;;;;;12.02;1.90;;;3.10;99.90;;;;;;5061062;28;20050;-68
2022/01/05 10:11:51;;;;;;;12.77;1.65;;;3.20;99.90;;;;;;5062507;28;20048;-67
2022/01/05 10:14:18;;;;;;;12.30;1.80;;;3.20;99.90;;;;;;5061414;28;20059;-67
2022/01/05 10:17:07;;;;;;;10.85;2.05;;;3.30;99.90;;;;;;5062076;28;20062;-70
2022/01/05 10:19:36;;;;;;;13.38;1.35;;;3.30;99.90;;;;;;5062017;28;20045;-66
2022/01/05 10:22:36;;;;;;;11.85;1.73;;;3.40;99.90;;;;;;5060923;28;20472;-67
2022/01/05 10:25:20;;;;;;;17.90;2.47;;;3.40;99.90;;;;;;5078054;28;20040;-66
2022/01/05 10:28:25;;;;;;;11.55;2.45;;;3.50;99.90;;;;;;5081266;28;20052;-68
2022/01/05 10:30:53;;;;;;;16.63;2.95;;;3.50;99.90;;;;;;5081965;28;20376;-68
2022/01/05 10:33:28;;;;;;;10.88;2.00;;;3.60;99.90;;;;;;5082306;28;20048;-68
2022/01/05 10:35:56;;;;;;;14.27;3.13;;;3.60;99.90;;;;;;5085106;28;20391;-67
2022/01/05 10:38:29;;;;;;;16.67;4.43;;;3.60;99.90;;;;;;5083854;28;20056;-67
2022/01/05 10:40:56;;;;;;;12.70;3.85;;;3.70;99.90;;;;;;5085074;28;20052;-67
2022/01/05 10:43:24;;;;;;;14.13;4.03;;;3.70;99.90;;;;;;5084810;28;20196;-71
2022/01/05 10:45:52;;;;;;;25.75;6.82;;;3.80;99.90;;;;;;5084788;28;20395;-72
2022/01/05 10:48:24;;;;;;;5.90;2.03;;;3.80;99.90;;;;;;5084669;28;20036;-68
2022/01/05 10:51:04;;;;;;;10.25;1.65;;;3.90;99.90;;;;;;5084747;28;20047;-68
2022/01/05 10:53:31;;;;;;;21.35;2.50;;;4.00;99.90;;;;;;5101874;28;20398;-70
2022/01/05 10:55:59;;;;;;;18.15;2.42;;;4.00;99.90;;;;;;5103733;28;20059;-67
2022/01/05 10:58:41;;;;;;;14.45;2.53;;;4.00;99.90;;;;;;5104907;28;20364;-69
2022/01/05 11:01:29;;;;;;;15.32;2.60;;;4.10;99.90;;;;;;5115335;28;20059;-68
2022/01/05 11:03:57;;;;;;;11.57;1.80;;;4.20;99.90;;;;;;5110424;28;20050;-68
2022/01/05 11:06:25;;;;;;;18.58;2.85;;;4.30;99.90;;;;;;5111568;28;20055;-71
2022/01/05 11:08:55;;;;;;;16.77;2.45;;;4.40;99.90;;;;;;5111318;28;20040;-70
2022/01/05 11:11:35;;;;;;;;;;;4.50;99.90;;;;;;5110635;28;20051;-68
2022/01/05 11:14:09;;;;;;;15.32;1.98;;;4.60;99.90;;;;;;5094763;28;19921;-71
2022/01/05 11:16:39;;;;;;;11.30;1.85;;;4.70;99.90;;;;;;5070682;28;20049;-71
2022/01/05 11:19:12;;;;;;;11.27;1.90;;;4.80;99.90;;;;;;5069798;28;20411;-70
2022/01/05 11:21:54;;;;;;;13.73;1.85;;;4.90;99.90;;;;;;5070390;28;20051;-69
2022/01/05 11:24:23;;;;;;;12.85;3.60;;;5.00;99.90;;;;;;5099463;28;20046;-75
2022/01/05 11:26:52;;;;;;;10.00;1.70;;;5.20;99.90;;;;;;5111226;28;20048;-69
2022/01/05 11:29:20;;;;;;;10.30;1.83;;;5.30;99.90;;;;;;5111109;28;20048;-68
2022/01/05 11:31:48;;;;;;;10.00;1.75;;;5.50;99.90;;;;;;5111271;28;20055;-71
2022/01/05 11:34:16;;;;;;;11.73;1.30;;;5.60;99.90;;;;;;5110773;28;20048;-68
2022/01/05 11:36:44;;;;;;;11.38;1.58;;;5.70;99.90;;;;;;5110954;28;20479;-76
2022/01/05 11:39:11;;;;;;;11.73;1.30;;;5.90;99.90;;;;;;5110934;28;20047;-71
2022/01/05 11:41:46;;;;;;;5.75;1.13;;;6.10;99.90;;;;;;5110857;28;20055;-70
2022/01/05 11:44:16;;;;;;;9.50;1.83;;;6.30;99.90;;;;;;5110589;28;20051;-71
2022/01/05 11:46:46;;;;;;;15.35;2.15;;;6.50;99.90;;;;;;5110771;28;20477;-72
2022/01/05 11:49:23;;;;;;;11.10;1.52;;;6.60;99.90;;;;;;5109738;28;20052;-74
2022/01/05 11:51:52;;;;;;;10.65;1.35;;;6.60;99.90;;;;;;5110820;28;20047;-78
2022/01/05 11:54:26;;;;;;;9.85;1.23;;;6.50;99.90;;;;;;5110476;28;20579;-79
2022/01/05 11:57:07;;;;;;;9.40;1.55;;;6.60;99.90;;;;;;5110669;28;20058;-74
2022/01/05 11:59:38;;;;;;;10.68;2.10;;;6.80;99.90;;;;;;5108996;28;20553;-73
2022/01/05 12:02:18;;;;;;;13.55;0.95;;;7.10;99.90;;;;;;5110560;28;20055;-78
2022/01/05 12:04:53;;;;;;;9.68;1.77;;;7.20;99.90;;;;;;5110062;28;20054;-73
2022/01/05 12:07:45;;;;;;;8.10;1.00;;;7.20;99.90;;;;;;5110436;28;20413;-76
2022/01/05 12:10:22;;;;;;;13.00;1.60;;;7.50;99.90;;;;;;5108803;28;20062;-69
2022/01/05 12:13:04;;;;;;;11.88;2.17;;;7.80;99.90;;;;;;5109553;28;20044;-76
2022/01/05 12:15:57;;;;;;;14.13;1.60;;;8.10;99.90;;;;;;5110472;28;20052;-68
2022/01/05 12:18:29;;;;;;;16.33;6.25;;;8.50;99.90;;;;;;5110380;28;20059;-69
2022/01/05 12:20:58;;;;;;;10.13;2.15;;;8.80;99.90;;;;;;5091781;28;20380;-73
2022/01/05 12:23:28;;;;;;;512.70;200.60;;;8.80;99.90;;;;;;5109688;28;20070;-73
2022/01/05 12:26:05;;;;;;;23.23;8.35;;;8.80;99.90;;;;;;5110167;28;20046;-68
2022/01/05 12:28:38;;;;;;;9.90;2.38;;;8.80;99.90;;;;;;5108863;28;20125;-72
2022/01/05 12:31:07;;;;;;;13.05;2.58;;;8.80;99.90;;;;;;5109938;28;20429;-71
2022/01/05 12:33:51;;;;;;;25.10;5.47;;;9.00;99.90;;;;;;5109519;28;20054;-67
2022/01/05 12:36:32;;;;;;;9.40;2.25;;;8.80;99.90;;;;;;5108460;28;20502;-72
2022/01/05 12:39:06;;;;;;;15.00;2.00;;;8.40;99.10;;;;;;5110018;28;20058;-68
2022/01/05 12:41:39;;;;;;;11.18;1.75;;;8.20;99.90;;;;;;5109667;28;20603;-67
2022/01/05 12:44:15;;;;;;;15.30;2.67;;;8.20;99.90;;;;;;5109329;28;20040;-66
2022/01/05 12:46:45;;;;;;;7.10;1.65;;;8.10;99.90;;;;;;5109499;28;20050;-67
2022/01/05 12:49:31;;;;;;;14.20;1.67;;;7.70;99.40;;;;;;5109669;28;20039;-68
2022/01/05 12:51:59;;;;;;;8.18;2.40;;;7.50;99.90;;;;;;5109544;28;20054;-67
2022/01/05 12:54:29;;;;;;;9.00;1.65;;;7.60;99.90;;;;;;5109226;28;20046;-68
2022/01/05 12:56:58;;;;;;;12.90;2.05;;;7.60;99.90;;;;;;5109411;28;20501;-67
2022/01/05 12:59:34;;;;;;;8.57;1.50;;;7.50;99.90;;;;;;5109439;28;20055;-68
2022/01/05 13:02:04;;;;;;;10.55;1.27;;;7.70;99.90;;;;;;5109330;28;20051;-67
2022/01/05 13:04:32;;;;;;;10.23;1.20;;;7.90;99.90;;;;;;5108958;28;20040;-67
2022/01/05 13:07:03;;;;;;;9.25;1.15;;;8.20;99.90;;;;;;5109493;28;20307;-69
2022/01/05 13:09:36;;;;;;;11.10;1.63;;;8.50;99.90;;;;;;5091325;28;20059;-66
2022/01/05 13:12:08;;;;;;;9.45;1.15;;;9.00;99.90;;;;;;5109357;28;20505;-68
2022/01/05 13:14:38;;;;;;;5.90;1.67;;;9.40;99.90;;;;;;5109119;28;20486;-66
2022/01/05 13:17:08;;;;;;;9.07;1.40;;;9.70;99.90;;;;;;5108934;28;20043;-67
2022/01/05 13:19:51;;;;;;;9.50;1.27;;;10.10;99.90;;;;;;5109179;28;20067;-67
2022/01/05 13:22:29;;;;;;;6.72;1.17;;;10.40;98.70;;;;;;5108972;28;20055;-65
2022/01/05 13:25:10;;;;;;;5.20;1.27;;;10.50;94.20;;;;;;5107183;28;20044;-66
2022/01/05 13:27:45;;;;;;;8.90;1.10;;;10.40;94.10;;;;;;5109004;28;20047;-67
2022/01/05 13:30:18;;;;;;;13.82;1.60;;;10.30;95.30;;;;;;5109185;28;20052;-66
2022/01/05 13:32:48;;;;;;;9.20;1.95;;;10.40;96.90;;;;;;5107358;28;20420;-66
2022/01/05 13:35:23;;;;;;;7.00;1.25;;;10.40;94.50;;;;;;5107770;28;20079;-66
2022/01/05 13:37:53;;;;;;;5.72;1.30;;;10.40;94.80;;;;;;5109088;28;20039;-66
2022/01/05 13:40:30;;;;;;;2.63;0.73;;;10.60;95.70;;;;;;5108956;28;20047;-66
2022/01/05 13:43:01;;;;;;;8.65;1.98;;;10.80;95.90;;;;;;5108498;28;20059;-66
2022/01/05 13:45:34;;;;;;;9.60;1.63;;;10.80;92.60;;;;;;5108527;28;20058;-66
2022/01/05 13:48:07;;;;;;;10.90;1.75;;;10.30;91.20;;;;;;5108803;28;20051;-66
2022/01/05 13:50:42;;;;;;;10.10;2.10;;;9.70;90.80;;;;;;5108620;28;20040;-65
2022/01/05 13:53:19;;;;;;;7.00;1.33;;;9.40;94.20;;;;;;5107317;28;20402;-66
2022/01/05 13:55:49;;;;;;;4.78;1.50;;;9.40;97.10;;;;;;5107602;28;20039;-68
2022/01/05 13:58:23;;;;;;;11.88;2.00;;;9.60;98.00;;;;;;5108675;28;20040;-67
2022/01/05 14:01:03;;;;;;;7.85;1.52;;;9.90;98.90;;;;;;5108244;28;20047;-66
2022/01/05 14:03:31;;;;;;;12.20;1.40;;;10.40;98.30;;;;;;5108121;28;20051;-67
2022/01/05 14:06:00;;;;;;;9.50;1.20;;;10.80;96.30;;;;;;5106717;28;20044;-66
2022/01/05 14:08:34;;;;;;;10.25;1.48;;;11.00;95.50;;;;;;5105619;28;20048;-69
2022/01/05 14:11:17;;;;;;;9.60;1.95;;;11.20;93.60;;;;;;5106964;28;20059;-70
2022/01/05 14:14:04;;;;;;;5.30;1.33;;;11.10;92.50;;;;;;5108052;28;20126;-70
2022/01/05 14:16:36;;;;;;;6.10;1.02;;;10.70;90.70;;;;;;5108537;28;20398;-69
2022/01/05 14:19:05;;;;;;;5.60;1.00;;;10.10;89.40;;;;;;5106671;28;20052;-67
2022/01/05 14:21:36;;;;;;;6.57;1.20;;;9.40;89.10;;;;;;5107523;28;20059;-69
2022/01/05 14:24:04;;;;;;;12.32;1.67;;;8.80;90.40;;;;;;5107815;28;20062;-71
2022/01/05 14:26:33;;;;;;;8.68;2.92;;;8.20;91.40;;;;;;5108018;28;20063;-67
2022/01/05 14:29:01;;;;;;;6.63;1.10;;;7.80;92.40;;;;;;5097316;28;20514;-70
2022/01/05 14:31:47;;;;;;;12.00;1.13;;;7.40;93.60;;;;;;5067761;28;20048;-74
2022/01/05 14:34:19;;;;;;;;;;;7.10;94.50;;;;;;5081115;28;20546;-68
2022/01/05 14:36:51;;;;;;;8.27;1.75;;;6.80;94.90;;;;;;5068842;28;19920;-71
2022/01/05 14:39:21;;;;;;;4.00;1.05;;;6.50;95.90;;;;;;5071502;28;20052;-69
2022/01/05 14:42:01;;;;;;;8.20;1.30;;;6.30;96.50;;;;;;5071425;28;20040;-66
2022/01/05 14:44:33;;;;;;;5.43;1.60;;;6.10;97.10;;;;;;5086494;28;20048;-69
2022/01/05 14:47:25;;;;;;;8.32;1.00;;;5.90;97.60;;;;;;5091605;28;20040;-69
2022/01/05 14:49:53;;;;;;;9.63;1.20;;;5.70;97.80;;;;;;5090634;28;20047;-68
2022/01/05 14:52:22;;;;;;;6.68;1.65;;;5.50;98.30;;;;;;5091795;28;20506;-67
2022/01/05 14:54:52;;;;;;;5.68;1.55;;;5.40;98.70;;;;;;5091075;28;20040;-69
2022/01/05 14:57:22;;;;;;;8.55;1.30;;;5.30;99.10;;;;;;5091655;28;20051;-68
2022/01/05 14:59:52;;;;;;;10.70;1.88;;;5.20;99.60;;;;;;5091162;28;20067;-65
2022/01/05 15:02:21;;;;;;;8.35;1.33;;;5.10;99.90;;;;;;5091363;28;20055;-68
2022/01/05 15:04:48;;;;;;;6.63;1.50;;;5.10;99.90;;;;;;5080113;28;20040;-68